Springvale, Ohio
Current Conditions -  °F | °C
As of 12:53 AM on Monday 22 Dec 2014 (Local Time) from KLUK Reporting Station
Haze Haze  
Wind Chill: 23°   Ceiling: Unl
Heat Index: 23°   Visibility: 4mi
Dew Point: 21°   Wind: 3mph
Humidity: 92%   Direction: 60°ENE
Pressure: 30.11"   Gusts: NA
Location:  39.23°N, 84.2394°W
Report Text: KLUK 220553Z AUTO 06003KT 4SM BR CLR M05/M06 A3011 RMK AO2 SLP201 I1000 I6000 T10501061 11011 21067 58017
Loading
Personal Weather Stations






























Interactive Weather Map New forecast layout! Learn more

10-Day Weather Forecast

Advertisements
Track Severe Weather on mobile